sensor_id;sensor_type;location;lat;lon;timestamp;pressure;altitude;pressure_sealevel;temperature;humidity
59493;BME280;45497;43.996;22.876;2022-08-01T00:01:14;100745.09;;;24.37;34.24
59493;BME280;45497;43.996;22.876;2022-08-01T00:03:39;100752.97;;;24.39;34.26
59493;BME280;45497;43.996;22.876;2022-08-01T00:06:05;100752.47;;;24.42;34.01
59493;BME280;45497;43.996;22.876;2022-08-01T00:08:30;100754.63;;;24.40;33.81
59493;BME280;45497;43.996;22.876;2022-08-01T00:10:56;100748.69;;;24.48;33.66
59493;BME280;45497;43.996;22.876;2022-08-01T00:13:22;100750.59;;;24.48;33.54
59493;BME280;45497;43.996;22.876;2022-08-01T00:15:47;100752.50;;;24.52;33.51
59493;BME280;45497;43.996;22.876;2022-08-01T00:18:13;100757.94;;;24.52;33.26
59493;BME280;45497;43.996;22.876;2022-08-01T00:20:38;100758.22;;;24.51;33.69
59493;BME280;45497;43.996;22.876;2022-08-01T00:23:03;100749.50;;;24.49;33.82
59493;BME280;45497;43.996;22.876;2022-08-01T00:25:30;100750.31;;;24.44;33.78
59493;BME280;45497;43.996;22.876;2022-08-01T00:27:55;100748.13;;;24.41;33.90
59493;BME280;45497;43.996;22.876;2022-08-01T00:30:21;100741.09;;;24.40;34.05
59493;BME280;45497;43.996;22.876;2022-08-01T00:32:46;100748.38;;;24.39;34.04
59493;BME280;45497;43.996;22.876;2022-08-01T00:35:12;100746.78;;;24.43;34.09
59493;BME280;45497;43.996;22.876;2022-08-01T00:37:38;100744.34;;;24.42;34.08
59493;BME280;45497;43.996;22.876;2022-08-01T00:40:04;100746.22;;;24.41;34.20
59493;BME280;45497;43.996;22.876;2022-08-01T00:42:30;100744.34;;;24.42;33.69
59493;BME280;45497;43.996;22.876;2022-08-01T00:44:55;100742.19;;;24.44;33.92
59493;BME280;45497;43.996;22.876;2022-08-01T00:47:21;100751.13;;;24.45;33.41
59493;BME280;45497;43.996;22.876;2022-08-01T00:49:46;100742.66;;;24.36;33.63
59493;BME280;45497;43.996;22.876;2022-08-01T00:52:13;100745.09;;;24.37;33.61
59493;BME280;45497;43.996;22.876;2022-08-01T00:54:38;100737.03;;;24.42;33.42
59493;BME280;45497;43.996;22.876;2022-08-01T00:57:04;100740.25;;;24.39;33.68
59493;BME280;45497;43.996;22.876;2022-08-01T00:59:30;100732.66;;;24.41;33.67
59493;BME280;45497;43.996;22.876;2022-08-01T01:01:55;100733.75;;;24.40;33.85
59493;BME280;45497;43.996;22.876;2022-08-01T01:04:21;100732.94;;;24.40;33.96
59493;BME280;45497;43.996;22.876;2022-08-01T01:06:57;100739.41;;;24.34;34.29
59493;BME280;45497;43.996;22.876;2022-08-01T01:10:11;100739.41;;;24.34;34.41
59493;BME280;45497;43.996;22.876;2022-08-01T01:13:02;100738.88;;;24.37;34.34
59493;BME280;45497;43.996;22.876;2022-08-01T01:18:45;100742.91;;;24.29;34.73
59493;BME280;45497;43.996;22.876;2022-08-01T01:24:11;100760.69;;;24.15;34.97
59493;BME280;45497;43.996;22.876;2022-08-01T01:26:58;100755.81;;;24.17;35.15
59493;BME280;45497;43.996;22.876;2022-08-01T01:29:31;100754.22;;;24.21;35.16
59493;BME280;45497;43.996;22.876;2022-08-01T01:32:13;100749.06;;;24.19;35.29
59493;BME280;45497;43.996;22.876;2022-08-01T01:34:42;100748.72;;;24.11;35.41
59493;BME280;45497;43.996;22.876;2022-08-01T01:37:18;100745.50;;;24.14;35.28
59493;BME280;45497;43.996;22.876;2022-08-01T01:39:46;100741.44;;;24.11;35.47
59493;BME280;45497;43.996;22.876;2022-08-01T01:42:13;100743.00;;;24.07;35.44
59493;BME280;45497;43.996;22.876;2022-08-01T01:44:40;100744.41;;;24.10;35.15
59493;BME280;45497;43.996;22.876;2022-08-01T01:47:08;100736.47;;;24.03;35.23
59493;BME280;45497;43.996;22.876;2022-08-01T01:49:34;100744.56;;;23.98;35.22
59493;BME280;45497;43.996;22.876;2022-08-01T01:52:01;100734.25;;;23.95;35.08
59493;BME280;45497;43.996;22.876;2022-08-01T01:54:31;100721.53;;;23.95;35.08
59493;BME280;45497;43.996;22.876;2022-08-01T01:56:59;100732.41;;;24.00;35.09
59493;BME280;45497;43.996;22.876;2022-08-01T01:59:29;100727.75;;;23.96;34.97
59493;BME280;45497;43.996;22.876;2022-08-01T02:01:57;100720.16;;;23.93;34.96
59493;BME280;45497;43.996;22.876;2022-08-01T02:04:24;100724.47;;;23.89;34.94
59493;BME280;45497;43.996;22.876;2022-08-01T02:06:53;100727.22;;;23.94;34.67
59493;BME280;45497;43.996;22.876;2022-08-01T02:09:20;100724.72;;;23.87;35.02
59493;BME280;45497;43.996;22.876;2022-08-01T02:11:48;100718.75;;;23.85;35.01
59493;BME280;45497;43.996;22.876;2022-08-01T02:14:15;100716.84;;;23.85;35.00
59493;BME280;45497;43.996;22.876;2022-08-01T02:16:44;100722.81;;;23.88;34.75
59493;BME280;45497;43.996;22.876;2022-08-01T02:19:10;100715.72;;;23.81;34.96
59493;BME280;45497;43.996;22.876;2022-08-01T02:27:17;100716.53;;;23.82;34.86
59493;BME280;45497;43.996;22.876;2022-08-01T02:29:53;100716.47;;;23.77;34.95
59493;BME280;45497;43.996;22.876;2022-08-01T02:32:30;100709.13;;;23.72;34.87
59493;BME280;45497;43.996;22.876;2022-08-01T02:34:57;100717.25;;;23.72;34.96
59493;BME280;45497;43.996;22.876;2022-08-01T02:37:24;100714.81;;;23.71;35.17
59493;BME280;45497;43.996;22.876;2022-08-01T02:39:53;100700.72;;;23.69;35.08
59493;BME280;45497;43.996;22.876;2022-08-01T02:42:20;100709.59;;;23.64;34.94
59493;BME280;45497;43.996;22.876;2022-08-01T02:44:48;100705.53;;;23.61;34.99
59493;BME280;45497;43.996;22.876;2022-08-01T02:47:15;100699.56;;;23.59;35.33
59493;BME280;45497;43.996;22.876;2022-08-01T02:49:45;100700.13;;;23.61;35.05
59493;BME280;45497;43.996;22.876;2022-08-01T02:52:14;100696.56;;;23.56;35.32
59493;BME280;45497;43.996;22.876;2022-08-01T02:54:42;100695.16;;;23.53;35.01
59493;BME280;45497;43.996;22.876;2022-08-01T02:57:09;100701.66;;;23.52;35.09
59493;BME280;45497;43.996;22.876;2022-08-01T02:59:37;100689.69;;;23.43;35.17
59493;BME280;45497;43.996;22.876;2022-08-01T03:02:04;100697.53;;;23.44;35.43
59493;BME280;45497;43.996;22.876;2022-08-01T03:04:33;100701.31;;;23.43;35.36
59493;BME280;45497;43.996;22.876;2022-08-01T03:07:17;100692.88;;;23.40;35.43
59493;BME280;45497;43.996;22.876;2022-08-01T03:09:45;100683.13;;;23.39;35.31
59493;BME280;45497;43.996;22.876;2022-08-01T03:12:15;100692.56;;;23.36;35.27
59493;BME280;45497;43.996;22.876;2022-08-01T03:14:43;100693.13;;;23.38;34.90
59493;BME280;45497;43.996;22.876;2022-08-01T03:17:10;100697.19;;;23.36;34.93
59493;BME280;45497;43.996;22.876;2022-08-01T03:19:38;100681.50;;;23.38;35.03
59493;BME280;45497;43.996;22.876;2022-08-01T03:22:06;100688.34;;;23.45;35.07
59493;BME280;45497;43.996;22.876;2022-08-01T03:24:34;100698.66;;;23.48;34.92
59493;BME280;45497;43.996;22.876;2022-08-01T03:27:02;100700.25;;;23.50;34.78
59493;BME280;45497;43.996;22.876;2022-08-01T03:29:29;100704.72;;;23.61;34.81
59493;BME280;45497;43.996;22.876;2022-08-01T03:31:57;100701.78;;;23.67;34.84
59493;BME280;45497;43.996;22.876;2022-08-01T03:34:23;100710.56;;;23.80;34.73
59493;BME280;45497;43.996;22.876;2022-08-01T03:37:03;100722.34;;;23.96;34.40
59493;BME280;45497;43.996;22.876;2022-08-01T03:39:34;100714.84;;;24.08;34.41
59493;BME280;45497;43.996;22.876;2022-08-01T03:42:09;100718.41;;;24.14;34.21
59493;BME280;45497;43.996;22.876;2022-08-01T03:44:38;100709.56;;;24.29;34.06
59493;BME280;45497;43.996;22.876;2022-08-01T03:47:07;100697.19;;;24.43;33.73
59493;BME280;45497;43.996;22.876;2022-08-01T03:49:37;100715.47;;;24.58;33.37
59493;BME280;45497;43.996;22.876;2022-08-01T03:52:07;100709.00;;;24.69;33.28
59493;BME280;45497;43.996;22.876;2022-08-01T03:54:35;100715.84;;;24.82;33.15
59493;BME280;45497;43.996;22.876;2022-08-01T03:57:02;100720.50;;;25.02;32.89
59493;BME280;45497;43.996;22.876;2022-08-01T03:59:30;100721.09;;;25.19;32.59
59493;BME280;45497;43.996;22.876;2022-08-01T04:01:57;100721.19;;;25.55;31.97
59493;BME280;45497;43.996;22.876;2022-08-01T04:04:23;100719.03;;;25.83;31.73
59493;BME280;45497;43.996;22.876;2022-08-01T04:06:50;100717.16;;;26.04;31.04
59493;BME280;45497;43.996;22.876;2022-08-01T04:09:19;100713.00;;;26.38;31.01
59493;BME280;45497;43.996;22.876;2022-08-01T04:11:45;100709.66;;;26.72;30.08
59493;BME280;45497;43.996;22.876;2022-08-01T04:14:10;100712.81;;;26.99;29.89
59493;BME280;45497;43.996;22.876;2022-08-01T04:16:36;100715.91;;;27.32;29.63
59493;BME280;45497;43.996;22.876;2022-08-01T04:19:02;100718.34;;;27.34;29.45
59493;BME280;45497;43.996;22.876;2022-08-01T04:21:31;100728.94;;;27.35;29.17
59493;BME280;45497;43.996;22.876;2022-08-01T04:24:10;100726.66;;;27.48;28.94
59493;BME280;45497;43.996;22.876;2022-08-01T04:26:39;100723.88;;;27.58;29.42
59493;BME280;45497;43.996;22.876;2022-08-01T04:29:06;100730.31;;;27.72;29.17
59493;BME280;45497;43.996;22.876;2022-08-01T04:31:35;100727.34;;;28.03;28.59
59493;BME280;45497;43.996;22.876;2022-08-01T04:34:03;100730.28;;;28.36;28.37
59493;BME280;45497;43.996;22.876;2022-08-01T04:36:33;100734.53;;;28.71;27.88
59493;BME280;45497;43.996;22.876;2022-08-01T04:39:00;100726.53;;;28.99;27.63
59493;BME280;45497;43.996;22.876;2022-08-01T04:41:27;100710.25;;;29.13;27.26
59493;BME280;45497;43.996;22.876;2022-08-01T04:43:56;100721.72;;;29.34;26.89
59493;BME280;45497;43.996;22.876;2022-08-01T04:46:24;100723.47;;;29.63;26.42
59493;BME280;45497;43.996;22.876;2022-08-01T04:48:50;100718.94;;;30.05;25.91
59493;BME280;45497;43.996;22.876;2022-08-01T04:51:17;100727.50;;;30.73;25.51
59493;BME280;45497;43.996;22.876;2022-08-01T04:53:45;100718.44;;;31.14;24.62
59493;BME280;45497;43.996;22.876;2022-08-01T04:56:13;100716.41;;;31.42;24.25
59493;BME280;45497;43.996;22.876;2022-08-01T04:58:42;100726.38;;;31.83;24.06
59493;BME280;45497;43.996;22.876;2022-08-01T05:01:09;100722.06;;;32.13;23.20
59493;BME280;45497;43.996;22.876;2022-08-01T05:03:36;100727.47;;;32.67;22.49
59493;BME280;45497;43.996;22.876;2022-08-01T05:06:02;100716.84;;;33.62;21.43
59493;BME280;45497;43.996;22.876;2022-08-01T05:08:28;100711.25;;;35.03;19.82
59493;BME280;45497;43.996;22.876;2022-08-01T05:10:54;100706.97;;;37.17;17.88
59493;BME280;45497;43.996;22.876;2022-08-01T05:13:19;100697.72;;;39.63;15.65
59493;BME280;45497;43.996;22.876;2022-08-01T05:15:45;100689.44;;;41.64;13.84
59493;BME280;45497;43.996;22.876;2022-08-01T05:18:10;100694.22;;;42.71;12.90
59493;BME280;45497;43.996;22.876;2022-08-01T05:20:36;100694.84;;;43.27;12.35
59493;BME280;45497;43.996;22.876;2022-08-01T05:23:05;100702.94;;;42.58;12.53
59493;BME280;45497;43.996;22.876;2022-08-01T05:25:31;100690.41;;;42.31;12.77
59493;BME280;45497;43.996;22.876;2022-08-01T05:27:56;100693.34;;;43.55;11.75
59493;BME280;45497;43.996;22.876;2022-08-01T05:30:21;100690.19;;;45.23;10.80
59493;BME280;45497;43.996;22.876;2022-08-01T05:32:47;100685.59;;;46.80;9.89
59493;BME280;45497;43.996;22.876;2022-08-01T05:35:12;100692.19;;;47.55;9.40
59493;BME280;45497;43.996;22.876;2022-08-01T05:37:38;100678.72;;;48.57;9.10
59493;BME280;45497;43.996;22.876;2022-08-01T05:40:04;100683.44;;;49.53;8.17
59493;BME280;45497;43.996;22.876;2022-08-01T05:42:30;100698.75;;;50.43;8.11
59493;BME280;45497;43.996;22.876;2022-08-01T05:44:55;100687.03;;;51.00;7.52
59493;BME280;45497;43.996;22.876;2022-08-01T05:47:21;100694.66;;;51.76;6.90
59493;BME280;45497;43.996;22.876;2022-08-01T05:49:46;100688.50;;;52.70;6.53
59493;BME280;45497;43.996;22.876;2022-08-01T05:52:12;100687.28;;;53.61;5.62
59493;BME280;45497;43.996;22.876;2022-08-01T05:54:38;100690.66;;;54.67;5.62
59493;BME280;45497;43.996;22.876;2022-08-01T05:57:03;100690.91;;;55.21;5.29
59493;BME280;45497;43.996;22.876;2022-08-01T05:59:29;100681.97;;;56.01;4.58
59493;BME280;45497;43.996;22.876;2022-08-01T06:01:56;100689.19;;;56.41;4.40
59493;BME280;45497;43.996;22.876;2022-08-01T06:04:21;100680.81;;;57.17;4.07
59493;BME280;45497;43.996;22.876;2022-08-01T06:06:47;100672.41;;;58.16;3.39
59493;BME280;45497;43.996;22.876;2022-08-01T06:09:13;100669.22;;;58.67;3.29
59493;BME280;45497;43.996;22.876;2022-08-01T06:11:38;100674.09;;;59.47;3.27
59493;BME280;45497;43.996;22.876;2022-08-01T06:14:04;100684.34;;;59.82;3.26
59493;BME280;45497;43.996;22.876;2022-08-01T06:16:30;100683.59;;;59.93;2.72
59493;BME280;45497;43.996;22.876;2022-08-01T06:18:55;100677.91;;;60.38;2.53
59493;BME280;45497;43.996;22.876;2022-08-01T06:21:21;100689.03;;;60.98;2.26
59493;BME280;45497;43.996;22.876;2022-08-01T06:23:46;100681.00;;;61.61;2.52
59493;BME280;45497;43.996;22.876;2022-08-01T06:26:12;100666.28;;;62.17;2.12
59493;BME280;45497;43.996;22.876;2022-08-01T06:28:38;100667.78;;;62.24;1.79
59493;BME280;45497;43.996;22.876;2022-08-01T06:31:04;100667.69;;;62.35;1.43
59493;BME280;45497;43.996;22.876;2022-08-01T06:33:30;100667.88;;;62.43;1.38
59493;BME280;45497;43.996;22.876;2022-08-01T06:35:55;100665.28;;;62.39;1.85
59493;BME280;45497;43.996;22.876;2022-08-01T06:38:21;100662.84;;;62.49;1.62
59493;BME280;45497;43.996;22.876;2022-08-01T06:40:47;100653.50;;;62.73;1.62
59493;BME280;45497;43.996;22.876;2022-08-01T06:43:12;100657.66;;;62.11;2.06
59493;BME280;45497;43.996;22.876;2022-08-01T06:45:39;100653.63;;;62.56;1.37
59493;BME280;45497;43.996;22.876;2022-08-01T06:48:05;100667.72;;;62.84;1.79
59493;BME280;45497;43.996;22.876;2022-08-01T06:50:31;100649.81;;;62.18;1.83
59493;BME280;45497;43.996;22.876;2022-08-01T06:52:56;100647.72;;;61.82;1.92
59493;BME280;45497;43.996;22.876;2022-08-01T06:55:22;100652.94;;;62.20;1.92
59493;BME280;45497;43.996;22.876;2022-08-01T06:57:52;100632.38;;;62.16;2.04
59493;BME280;45497;43.996;22.876;2022-08-01T07:00:19;100632.75;;;61.95;2.08
59493;BME280;45497;43.996;22.876;2022-08-01T07:02:57;100628.69;;;61.43;2.35
59493;BME280;45497;43.996;22.876;2022-08-01T07:05:24;100632.19;;;61.13;2.44
59493;BME280;45497;43.996;22.876;2022-08-01T07:07:49;100634.88;;;60.89;2.35
59493;BME280;45497;43.996;22.876;2022-08-01T07:10:16;100630.97;;;60.86;2.19
59493;BME280;45497;43.996;22.876;2022-08-01T07:12:41;100629.25;;;61.30;1.94
59493;BME280;45497;43.996;22.876;2022-08-01T07:15:08;100631.19;;;61.05;2.57
59493;BME280;45497;43.996;22.876;2022-08-01T07:17:38;100631.56;;;60.00;2.59
59493;BME280;45497;43.996;22.876;2022-08-01T07:20:09;100639.72;;;55.54;4.17
59493;BME280;45497;43.996;22.876;2022-08-01T07:22:34;100641.34;;;49.62;7.83
59493;BME280;45497;43.996;22.876;2022-08-01T07:25:00;100672.13;;;46.33;9.52
59493;BME280;45497;43.996;22.876;2022-08-01T07:27:25;100659.84;;;44.05;11.24
59493;BME280;45497;43.996;22.876;2022-08-01T07:29:51;100683.59;;;42.25;12.46
59493;BME280;45497;43.996;22.876;2022-08-01T07:32:16;100687.38;;;41.20;13.50
59493;BME280;45497;43.996;22.876;2022-08-01T07:34:42;100682.09;;;39.97;14.26
59493;BME280;45497;43.996;22.876;2022-08-01T07:37:07;100690.69;;;39.46;15.00
59493;BME280;45497;43.996;22.876;2022-08-01T07:39:33;100685.38;;;38.62;15.78
59493;BME280;45497;43.996;22.876;2022-08-01T07:41:58;100704.81;;;37.83;16.44
59493;BME280;45497;43.996;22.876;2022-08-01T07:44:24;100699.00;;;37.28;16.78
59493;BME280;45497;43.996;22.876;2022-08-01T07:46:49;100701.19;;;36.69;17.69
59493;BME280;45497;43.996;22.876;2022-08-01T07:49:15;100700.63;;;36.39;18.17
59493;BME280;45497;43.996;22.876;2022-08-01T07:51:40;100700.59;;;36.02;18.76
59493;BME280;45497;43.996;22.876;2022-08-01T07:54:06;100702.28;;;35.49;19.46
59493;BME280;45497;43.996;22.876;2022-08-01T07:56:32;100711.91;;;35.00;19.66
59493;BME280;45497;43.996;22.876;2022-08-01T07:58:58;100703.88;;;34.65;20.21
59493;BME280;45497;43.996;22.876;2022-08-01T08:01:23;100701.66;;;34.29;20.74
59493;BME280;45497;43.996;22.876;2022-08-01T08:03:49;100696.84;;;34.08;21.02
59493;BME280;45497;43.996;22.876;2022-08-01T08:06:14;100695.22;;;34.16;21.25
59493;BME280;45497;43.996;22.876;2022-08-01T08:08:40;100693.34;;;33.90;21.33
59493;BME280;45497;43.996;22.876;2022-08-01T08:11:05;100687.22;;;33.85;21.60
59493;BME280;45497;43.996;22.876;2022-08-01T08:13:31;100692.78;;;33.67;21.69
59493;BME280;45497;43.996;22.876;2022-08-01T08:15:57;100702.00;;;33.37;22.02
59493;BME280;45497;43.996;22.876;2022-08-01T08:18:24;100681.16;;;33.36;22.11
59493;BME280;45497;43.996;22.876;2022-08-01T08:20:49;100705.56;;;33.28;22.52
59493;BME280;45497;43.996;22.876;2022-08-01T08:23:14;100693.44;;;33.03;22.42
59493;BME280;45497;43.996;22.876;2022-08-01T08:25:59;100711.72;;;33.17;22.65
59493;BME280;45497;43.996;22.876;2022-08-01T08:28:25;100708.59;;;33.09;22.56
59493;BME280;45497;43.996;22.876;2022-08-01T08:30:50;100695.38;;;33.20;22.49
59493;BME280;45497;43.996;22.876;2022-08-01T08:33:16;100708.81;;;33.30;22.61
59493;BME280;45497;43.996;22.876;2022-08-01T08:35:41;100701.69;;;33.29;22.89
59493;BME280;45497;43.996;22.876;2022-08-01T08:38:28;100700.72;;;33.34;22.88
59493;BME280;45497;43.996;22.876;2022-08-01T08:40:54;100689.25;;;33.41;22.88
59493;BME280;45497;43.996;22.876;2022-08-01T08:43:21;100706.22;;;33.51;22.98
59493;BME280;45497;43.996;22.876;2022-08-01T08:45:47;100699.56;;;33.44;22.94
59493;BME280;45497;43.996;22.876;2022-08-01T08:48:13;100700.25;;;33.41;23.11
59493;BME280;45497;43.996;22.876;2022-08-01T08:50:41;100708.94;;;33.08;23.19
59493;BME280;45497;43.996;22.876;2022-08-01T08:53:09;100710.53;;;32.91;23.23
59493;BME280;45497;43.996;22.876;2022-08-01T08:55:35;100706.50;;;32.89;23.72
59493;BME280;45497;43.996;22.876;2022-08-01T08:58:02;100712.78;;;32.89;23.62
59493;BME280;45497;43.996;22.876;2022-08-01T09:00:32;100709.88;;;32.86;23.62
59493;BME280;45497;43.996;22.876;2022-08-01T09:02:57;100706.81;;;32.79;23.41
59493;BME280;45497;43.996;22.876;2022-08-01T09:05:23;100701.00;;;32.89;23.53
59493;BME280;45497;43.996;22.876;2022-08-01T09:07:52;100704.56;;;32.89;23.58
59493;BME280;45497;43.996;22.876;2022-08-01T09:10:17;100701.66;;;32.94;23.51
59493;BME280;45497;43.996;22.876;2022-08-01T09:13:21;100688.22;;;32.67;23.65
59493;BME280;45497;43.996;22.876;2022-08-01T09:15:52;100694.53;;;32.93;23.50
59493;BME280;45497;43.996;22.876;2022-08-01T09:18:37;100691.31;;;33.00;23.36
59493;BME280;45497;43.996;22.876;2022-08-01T09:23:32;100685.66;;;32.96;23.45
59493;BME280;45497;43.996;22.876;2022-08-01T09:25:58;100688.75;;;32.86;23.52
59493;BME280;45497;43.996;22.876;2022-08-01T09:28:28;100685.81;;;32.74;23.64
59493;BME280;45497;43.996;22.876;2022-08-01T09:30:58;100687.59;;;32.79;23.69
59493;BME280;45497;43.996;22.876;2022-08-01T09:33:24;100679.84;;;32.98;23.29
59493;BME280;45497;43.996;22.876;2022-08-01T09:35:56;100682.59;;;32.98;23.75
59493;BME280;45497;43.996;22.876;2022-08-01T09:38:24;100687.94;;;33.03;23.41
59493;BME280;45497;43.996;22.876;2022-08-01T09:40:53;100669.03;;;32.93;23.61
59493;BME280;45497;43.996;22.876;2022-08-01T09:43:21;100672.75;;;32.88;23.28
59493;BME280;45497;43.996;22.876;2022-08-01T09:45:47;100672.91;;;33.01;23.20
59493;BME280;45497;43.996;22.876;2022-08-01T09:48:13;100672.44;;;33.07;23.40
59493;BME280;45497;43.996;22.876;2022-08-01T09:50:43;100672.91;;;33.09;23.50
59493;BME280;45497;43.996;22.876;2022-08-01T09:53:10;100677.09;;;32.89;23.18
59493;BME280;45497;43.996;22.876;2022-08-01T09:55:37;100675.00;;;32.78;23.87
59493;BME280;45497;43.996;22.876;2022-08-01T09:58:02;100673.84;;;32.79;23.68
59493;BME280;45497;43.996;22.876;2022-08-01T10:00:30;100670.63;;;32.76;23.92
59493;BME280;45497;43.996;22.876;2022-08-01T10:02:56;100677.28;;;32.75;24.17
59493;BME280;45497;43.996;22.876;2022-08-01T10:05:35;100679.34;;;32.79;23.92
59493;BME280;45497;43.996;22.876;2022-08-01T10:08:02;100669.38;;;32.83;23.65
59493;BME280;45497;43.996;22.876;2022-08-01T10:10:29;100666.94;;;32.72;23.89
59493;BME280;45497;43.996;22.876;2022-08-01T10:12:57;100670.31;;;32.69;24.04
59493;BME280;45497;43.996;22.876;2022-08-01T10:15:24;100661.75;;;32.71;23.97
59493;BME280;45497;43.996;22.876;2022-08-01T10:17:57;100664.66;;;32.74;24.13
59493;BME280;45497;43.996;22.876;2022-08-01T10:20:29;100662.41;;;32.76;24.23
59493;BME280;45497;43.996;22.876;2022-08-01T10:22:59;100669.38;;;32.83;24.40
59493;BME280;45497;43.996;22.876;2022-08-01T10:25:28;100670.31;;;32.87;23.82
59493;BME280;45497;43.996;22.876;2022-08-01T10:27:54;100653.69;;;32.74;24.14
59493;BME280;45497;43.996;22.876;2022-08-01T10:30:23;100662.72;;;32.75;24.37
59493;BME280;45497;43.996;22.876;2022-08-01T10:32:49;100650.47;;;32.81;24.05
59493;BME280;45497;43.996;22.876;2022-08-01T10:35:17;100660.44;;;32.77;24.20
59493;BME280;45497;43.996;22.876;2022-08-01T10:37:45;100655.78;;;32.78;24.62
59493;BME280;45497;43.996;22.876;2022-08-01T10:40:14;100667.72;;;32.82;24.12
59493;BME280;45497;43.996;22.876;2022-08-01T10:42:45;100654.03;;;32.90;24.31
59493;BME280;45497;43.996;22.876;2022-08-01T10:45:13;100651.13;;;32.95;23.93
59493;BME280;45497;43.996;22.876;2022-08-01T10:47:50;100667.41;;;33.01;24.17
59493;BME280;45497;43.996;22.876;2022-08-01T10:50:29;100663.84;;;32.91;23.88
59493;BME280;45497;43.996;22.876;2022-08-01T10:53:16;100662.09;;;32.78;24.29
59493;BME280;45497;43.996;22.876;2022-08-01T11:01:23;100650.78;;;33.06;24.28
59493;BME280;45497;43.996;22.876;2022-08-01T11:06:24;100662.09;;;32.95;24.45
59493;BME280;45497;43.996;22.876;2022-08-01T11:08:52;100659.50;;;32.99;24.47
59493;BME280;45497;43.996;22.876;2022-08-01T11:11:21;100644.63;;;32.91;24.09
59493;BME280;45497;43.996;22.876;2022-08-01T11:14:05;100665.16;;;33.03;23.89
59493;BME280;45497;43.996;22.876;2022-08-01T11:16:39;100646.09;;;33.15;23.93
59493;BME280;45497;43.996;22.876;2022-08-01T11:19:07;100646.59;;;33.26;24.11
59493;BME280;45497;43.996;22.876;2022-08-01T11:27:32;100640.75;;;33.27;24.28
59493;BME280;45497;43.996;22.876;2022-08-01T11:32:48;100634.78;;;33.17;24.47
59493;BME280;45497;43.996;22.876;2022-08-01T11:35:14;100649.34;;;33.08;24.21
59493;BME280;45497;43.996;22.876;2022-08-01T11:37:40;100644.81;;;33.04;24.23
59493;BME280;45497;43.996;22.876;2022-08-01T11:42:48;100637.06;;;33.23;24.03
59493;BME280;45497;43.996;22.876;2022-08-01T11:45:15;100642.06;;;33.21;24.29
59493;BME280;45497;43.996;22.876;2022-08-01T11:47:48;100653.84;;;33.04;24.11
59493;BME280;45497;43.996;22.876;2022-08-01T11:50:33;100637.69;;;33.11;24.47
59493;BME280;45497;43.996;22.876;2022-08-01T11:53:04;100645.78;;;33.34;24.43
59493;BME280;45497;43.996;22.876;2022-08-01T11:55:31;100635.25;;;33.36;24.22
59493;BME280;45497;43.996;22.876;2022-08-01T12:00:25;100630.47;;;33.16;24.25
59493;BME280;45497;43.996;22.876;2022-08-01T12:03:02;100631.56;;;33.14;24.64
59493;BME280;45497;43.996;22.876;2022-08-01T12:05:29;100628.03;;;33.14;24.39
59493;BME280;45497;43.996;22.876;2022-08-01T12:07:55;100626.72;;;33.03;24.55
59493;BME280;45497;43.996;22.876;2022-08-01T12:10:24;100632.53;;;33.01;24.02
59493;BME280;45497;43.996;22.876;2022-08-01T12:12:52;100623.81;;;32.99;24.58
59493;BME280;45497;43.996;22.876;2022-08-01T12:15:21;100625.09;;;33.10;24.50
59493;BME280;45497;43.996;22.876;2022-08-01T12:17:56;100623.31;;;33.06;24.16
59493;BME280;45497;43.996;22.876;2022-08-01T12:20:23;100632.19;;;32.76;24.55
59493;BME280;45497;43.996;22.876;2022-08-01T12:22:56;100633.19;;;32.72;24.52
59493;BME280;45497;43.996;22.876;2022-08-01T12:25:23;100626.69;;;32.68;24.95
59493;BME280;45497;43.996;22.876;2022-08-01T12:27:49;100627.69;;;32.72;24.96
59493;BME280;45497;43.996;22.876;2022-08-01T12:30:19;100623.31;;;32.71;24.79
59493;BME280;45497;43.996;22.876;2022-08-01T12:32:47;100618.16;;;32.69;24.55
59493;BME280;45497;43.996;22.876;2022-08-01T12:35:25;100614.44;;;32.65;24.37
59493;BME280;45497;43.996;22.876;2022-08-01T12:37:58;100620.44;;;32.76;25.00
59493;BME280;45497;43.996;22.876;2022-08-01T12:40:26;100621.53;;;32.75;24.82
59493;BME280;45497;43.996;22.876;2022-08-01T12:43:00;100614.94;;;32.67;24.55
59493;BME280;45497;43.996;22.876;2022-08-01T12:45:37;100614.59;;;32.60;24.64
59493;BME280;45497;43.996;22.876;2022-08-01T12:48:10;100614.69;;;32.46;24.98
59493;BME280;45497;43.996;22.876;2022-08-01T12:50:41;100612.13;;;32.32;24.76
59493;BME280;45497;43.996;22.876;2022-08-01T12:53:08;100605.47;;;32.33;24.76
59493;BME280;45497;43.996;22.876;2022-08-01T12:55:47;100608.38;;;32.28;24.75
59493;BME280;45497;43.996;22.876;2022-08-01T12:58:14;100603.19;;;32.27;25.17
59493;BME280;45497;43.996;22.876;2022-08-01T13:00:42;100603.53;;;32.25;25.01
59493;BME280;45497;43.996;22.876;2022-08-01T13:03:11;100602.09;;;32.36;25.05
59493;BME280;45497;43.996;22.876;2022-08-01T13:05:42;100605.66;;;32.37;24.72
59493;BME280;45497;43.996;22.876;2022-08-01T13:08:16;100603.53;;;32.34;24.96
59493;BME280;45497;43.996;22.876;2022-08-01T13:10:43;100598.06;;;32.34;24.85
59493;BME280;45497;43.996;22.876;2022-08-01T13:13:09;100604.38;;;32.43;24.72
59493;BME280;45497;43.996;22.876;2022-08-01T13:15:37;100612.94;;;32.42;24.65
59493;BME280;45497;43.996;22.876;2022-08-01T13:18:27;100607.44;;;32.33;24.76
59493;BME280;45497;43.996;22.876;2022-08-01T13:21:16;100601.97;;;32.42;24.70
59493;BME280;45497;43.996;22.876;2022-08-01T13:24:00;100610.50;;;32.40;24.91